sensor_id;sensor_type;location;lat;lon;timestamp;P1;durP1;ratioP1;P2;durP2;ratioP2
19521;SDS011;9905;52.126;5.596;2024-02-16T00:00:22;8.68;;;8.27;;
19521;SDS011;9905;52.126;5.596;2024-02-16T00:02:49;8.15;;;7.72;;
19521;SDS011;9905;52.126;5.596;2024-02-16T00:05:16;8.32;;;7.93;;
19521;SDS011;9905;52.126;5.596;2024-02-16T00:07:44;9.18;;;8.50;;
19521;SDS011;9905;52.126;5.596;2024-02-16T00:10:11;8.50;;;8.00;;
19521;SDS011;9905;52.126;5.596;2024-02-16T00:12:38;8.82;;;8.23;;
19521;SDS011;9905;52.126;5.596;2024-02-16T00:15:07;8.38;;;7.85;;
19521;SDS011;9905;52.126;5.596;2024-02-16T00:17:35;8.52;;;8.13;;
19521;SDS011;9905;52.126;5.596;2024-02-16T00:20:02;9.88;;;9.27;;
19521;SDS011;9905;52.126;5.596;2024-02-16T00:22:32;8.52;;;8.15;;
19521;SDS011;9905;52.126;5.596;2024-02-16T00:25:00;8.80;;;8.40;;
19521;SDS011;9905;52.126;5.596;2024-02-16T00:27:28;9.38;;;8.95;;
19521;SDS011;9905;52.126;5.596;2024-02-16T00:29:55;8.65;;;8.25;;
19521;SDS011;9905;52.126;5.596;2024-02-16T00:32:22;8.77;;;8.48;;
19521;SDS011;9905;52.126;5.596;2024-02-16T00:34:49;9.50;;;9.02;;
19521;SDS011;9905;52.126;5.596;2024-02-16T00:37:18;8.65;;;8.23;;
19521;SDS011;9905;52.126;5.596;2024-02-16T00:39:46;8.68;;;8.23;;
19521;SDS011;9905;52.126;5.596;2024-02-16T00:42:14;8.93;;;8.43;;
19521;SDS011;9905;52.126;5.596;2024-02-16T00:44:41;9.07;;;8.57;;
19521;SDS011;9905;52.126;5.596;2024-02-16T00:47:07;9.05;;;8.50;;
19521;SDS011;9905;52.126;5.596;2024-02-16T00:49:35;8.73;;;8.25;;
19521;SDS011;9905;52.126;5.596;2024-02-16T00:52:02;9.18;;;8.68;;
19521;SDS011;9905;52.126;5.596;2024-02-16T00:54:29;9.43;;;8.93;;
19521;SDS011;9905;52.126;5.596;2024-02-16T00:56:56;8.52;;;8.23;;
19521;SDS011;9905;52.126;5.596;2024-02-16T00:59:28;8.05;;;7.75;;
19521;SDS011;9905;52.126;5.596;2024-02-16T01:01:55;8.90;;;8.40;;
19521;SDS011;9905;52.126;5.596;2024-02-16T01:04:22;9.52;;;9.13;;
19521;SDS011;9905;52.126;5.596;2024-02-16T01:06:49;9.20;;;8.85;;
19521;SDS011;9905;52.126;5.596;2024-02-16T01:09:16;9.00;;;8.68;;
19521;SDS011;9905;52.126;5.596;2024-02-16T01:11:42;9.55;;;8.85;;
19521;SDS011;9905;52.126;5.596;2024-02-16T01:14:09;9.38;;;8.88;;
19521;SDS011;9905;52.126;5.596;2024-02-16T01:16:37;8.95;;;8.45;;
19521;SDS011;9905;52.126;5.596;2024-02-16T01:19:04;8.88;;;8.48;;
19521;SDS011;9905;52.126;5.596;2024-02-16T01:21:31;8.77;;;8.23;;
19521;SDS011;9905;52.126;5.596;2024-02-16T01:23:58;9.43;;;8.93;;
19521;SDS011;9905;52.126;5.596;2024-02-16T01:26:26;8.63;;;8.25;;
19521;SDS011;9905;52.126;5.596;2024-02-16T01:28:52;9.50;;;9.00;;
19521;SDS011;9905;52.126;5.596;2024-02-16T01:31:19;9.20;;;8.70;;
19521;SDS011;9905;52.126;5.596;2024-02-16T01:33:47;9.35;;;8.88;;
19521;SDS011;9905;52.126;5.596;2024-02-16T01:36:14;8.40;;;8.10;;
19521;SDS011;9905;52.126;5.596;2024-02-16T01:38:41;9.80;;;9.20;;
19521;SDS011;9905;52.126;5.596;2024-02-16T01:41:07;8.85;;;8.52;;
19521;SDS011;9905;52.126;5.596;2024-02-16T01:43:35;9.23;;;8.82;;
19521;SDS011;9905;52.126;5.596;2024-02-16T01:46:02;10.65;;;10.07;;
19521;SDS011;9905;52.126;5.596;2024-02-16T01:48:30;9.35;;;8.75;;
19521;SDS011;9905;52.126;5.596;2024-02-16T01:50:58;9.50;;;9.00;;
19521;SDS011;9905;52.126;5.596;2024-02-16T01:53:27;9.18;;;8.77;;
19521;SDS011;9905;52.126;5.596;2024-02-16T01:55:54;9.57;;;8.85;;
19521;SDS011;9905;52.126;5.596;2024-02-16T01:58:21;9.07;;;8.68;;
19521;SDS011;9905;52.126;5.596;2024-02-16T02:00:48;8.95;;;8.65;;
19521;SDS011;9905;52.126;5.596;2024-02-16T02:03:15;9.75;;;8.95;;
19521;SDS011;9905;52.126;5.596;2024-02-16T02:05:43;9.68;;;9.05;;
19521;SDS011;9905;52.126;5.596;2024-02-16T02:08:13;9.88;;;9.38;;
19521;SDS011;9905;52.126;5.596;2024-02-16T02:10:40;9.55;;;8.82;;
19521;SDS011;9905;52.126;5.596;2024-02-16T02:13:08;9.65;;;8.98;;
19521;SDS011;9905;52.126;5.596;2024-02-16T02:15:35;9.30;;;8.65;;
19521;SDS011;9905;52.126;5.596;2024-02-16T02:18:02;8.82;;;8.50;;
19521;SDS011;9905;52.126;5.596;2024-02-16T02:20:29;9.35;;;8.85;;
19521;SDS011;9905;52.126;5.596;2024-02-16T02:22:57;9.73;;;9.15;;
19521;SDS011;9905;52.126;5.596;2024-02-16T02:25:24;9.75;;;9.10;;
19521;SDS011;9905;52.126;5.596;2024-02-16T02:27:51;10.40;;;9.60;;
19521;SDS011;9905;52.126;5.596;2024-02-16T02:30:18;9.18;;;8.68;;
19521;SDS011;9905;52.126;5.596;2024-02-16T02:32:46;9.98;;;9.48;;
19521;SDS011;9905;52.126;5.596;2024-02-16T02:35:14;9.13;;;8.63;;
19521;SDS011;9905;52.126;5.596;2024-02-16T02:37:42;10.07;;;9.68;;
19521;SDS011;9905;52.126;5.596;2024-02-16T02:40:11;9.32;;;8.98;;
19521;SDS011;9905;52.126;5.596;2024-02-16T02:42:39;9.10;;;8.70;;
19521;SDS011;9905;52.126;5.596;2024-02-16T02:45:06;9.90;;;9.50;;
19521;SDS011;9905;52.126;5.596;2024-02-16T02:47:34;9.30;;;8.90;;
19521;SDS011;9905;52.126;5.596;2024-02-16T02:50:01;9.60;;;9.05;;
19521;SDS011;9905;52.126;5.596;2024-02-16T02:52:28;9.43;;;9.02;;
19521;SDS011;9905;52.126;5.596;2024-02-16T02:54:54;8.95;;;8.65;;
19521;SDS011;9905;52.126;5.596;2024-02-16T02:57:22;9.75;;;9.15;;
19521;SDS011;9905;52.126;5.596;2024-02-16T02:59:49;10.50;;;9.90;;
19521;SDS011;9905;52.126;5.596;2024-02-16T03:02:16;8.77;;;8.30;;
19521;SDS011;9905;52.126;5.596;2024-02-16T03:04:42;9.32;;;8.70;;
19521;SDS011;9905;52.126;5.596;2024-02-16T03:07:09;9.45;;;8.95;;
19521;SDS011;9905;52.126;5.596;2024-02-16T03:09:36;8.88;;;8.52;;
19521;SDS011;9905;52.126;5.596;2024-02-16T03:12:03;8.30;;;7.90;;
19521;SDS011;9905;52.126;5.596;2024-02-16T03:14:32;10.98;;;9.95;;
19521;SDS011;9905;52.126;5.596;2024-02-16T03:16:59;9.30;;;8.75;;
19521;SDS011;9905;52.126;5.596;2024-02-16T03:19:25;9.38;;;8.98;;
19521;SDS011;9905;52.126;5.596;2024-02-16T03:21:52;8.45;;;8.05;;
19521;SDS011;9905;52.126;5.596;2024-02-16T03:24:19;9.13;;;8.63;;
19521;SDS011;9905;52.126;5.596;2024-02-16T03:26:47;8.88;;;8.27;;
19521;SDS011;9905;52.126;5.596;2024-02-16T03:29:13;9.23;;;8.65;;
19521;SDS011;9905;52.126;5.596;2024-02-16T03:31:42;9.77;;;9.18;;
19521;SDS011;9905;52.126;5.596;2024-02-16T03:34:08;9.60;;;8.88;;
19521;SDS011;9905;52.126;5.596;2024-02-16T03:36:35;9.23;;;8.82;;
19521;SDS011;9905;52.126;5.596;2024-02-16T03:39:02;9.38;;;8.85;;
19521;SDS011;9905;52.126;5.596;2024-02-16T03:41:29;8.93;;;8.52;;
19521;SDS011;9905;52.126;5.596;2024-02-16T03:43:56;8.57;;;8.27;;
19521;SDS011;9905;52.126;5.596;2024-02-16T03:46:23;9.30;;;8.90;;
19521;SDS011;9905;52.126;5.596;2024-02-16T03:48:51;9.55;;;9.15;;
19521;SDS011;9905;52.126;5.596;2024-02-16T03:51:18;10.32;;;9.38;;
19521;SDS011;9905;52.126;5.596;2024-02-16T03:53:45;9.30;;;8.80;;
19521;SDS011;9905;52.126;5.596;2024-02-16T03:56:17;8.95;;;8.25;;
19521;SDS011;9905;52.126;5.596;2024-02-16T03:58:46;10.18;;;9.48;;
19521;SDS011;9905;52.126;5.596;2024-02-16T04:01:12;9.35;;;8.95;;
19521;SDS011;9905;52.126;5.596;2024-02-16T04:03:42;10.70;;;9.90;;
19521;SDS011;9905;52.126;5.596;2024-02-16T04:06:10;8.35;;;7.85;;
19521;SDS011;9905;52.126;5.596;2024-02-16T04:08:36;10.70;;;9.98;;
19521;SDS011;9905;52.126;5.596;2024-02-16T04:11:04;8.55;;;8.15;;
19521;SDS011;9905;52.126;5.596;2024-02-16T04:13:31;9.15;;;8.65;;
19521;SDS011;9905;52.126;5.596;2024-02-16T04:15:58;8.98;;;8.68;;
19521;SDS011;9905;52.126;5.596;2024-02-16T04:18:25;9.07;;;8.68;;
19521;SDS011;9905;52.126;5.596;2024-02-16T04:20:52;8.85;;;8.35;;
19521;SDS011;9905;52.126;5.596;2024-02-16T04:23:20;9.10;;;8.70;;
19521;SDS011;9905;52.126;5.596;2024-02-16T04:25:46;9.30;;;8.88;;
19521;SDS011;9905;52.126;5.596;2024-02-16T04:28:13;9.80;;;9.30;;
19521;SDS011;9905;52.126;5.596;2024-02-16T04:30:40;10.60;;;9.90;;
19521;SDS011;9905;52.126;5.596;2024-02-16T04:33:07;9.90;;;9.50;;
19521;SDS011;9905;52.126;5.596;2024-02-16T04:35:34;9.45;;;8.95;;
19521;SDS011;9905;52.126;5.596;2024-02-16T04:38:01;9.13;;;8.65;;
19521;SDS011;9905;52.126;5.596;2024-02-16T04:40:29;10.20;;;9.43;;
19521;SDS011;9905;52.126;5.596;2024-02-16T04:43:02;9.13;;;8.65;;
19521;SDS011;9905;52.126;5.596;2024-02-16T04:45:29;10.18;;;9.68;;
19521;SDS011;9905;52.126;5.596;2024-02-16T04:47:56;9.90;;;9.50;;
19521;SDS011;9905;52.126;5.596;2024-02-16T04:50:24;9.50;;;9.00;;
19521;SDS011;9905;52.126;5.596;2024-02-16T04:52:50;10.13;;;9.63;;
19521;SDS011;9905;52.126;5.596;2024-02-16T04:55:17;10.00;;;9.60;;
19521;SDS011;9905;52.126;5.596;2024-02-16T04:57:45;10.30;;;9.80;;
19521;SDS011;9905;52.126;5.596;2024-02-16T05:00:13;9.48;;;8.85;;
19521;SDS011;9905;52.126;5.596;2024-02-16T05:02:40;11.30;;;10.52;;
19521;SDS011;9905;52.126;5.596;2024-02-16T05:05:07;9.55;;;9.15;;
19521;SDS011;9905;52.126;5.596;2024-02-16T05:07:34;9.70;;;9.27;;
19521;SDS011;9905;52.126;5.596;2024-02-16T05:10:01;10.07;;;9.48;;
19521;SDS011;9905;52.126;5.596;2024-02-16T05:12:28;10.77;;;10.05;;
19521;SDS011;9905;52.126;5.596;2024-02-16T05:14:57;9.70;;;9.30;;
19521;SDS011;9905;52.126;5.596;2024-02-16T05:17:23;10.88;;;10.30;;
19521;SDS011;9905;52.126;5.596;2024-02-16T05:19:50;10.30;;;9.80;;
19521;SDS011;9905;52.126;5.596;2024-02-16T05:22:19;10.25;;;9.75;;
19521;SDS011;9905;52.126;5.596;2024-02-16T05:24:46;9.55;;;9.15;;
19521;SDS011;9905;52.126;5.596;2024-02-16T05:27:13;10.77;;;10.32;;
19521;SDS011;9905;52.126;5.596;2024-02-16T05:29:41;9.70;;;9.30;;
19521;SDS011;9905;52.126;5.596;2024-02-16T05:32:10;11.48;;;10.68;;
19521;SDS011;9905;52.126;5.596;2024-02-16T05:34:37;10.40;;;10.00;;
19521;SDS011;9905;52.126;5.596;2024-02-16T05:37:04;11.43;;;10.75;;
19521;SDS011;9905;52.126;5.596;2024-02-16T05:39:32;9.50;;;9.10;;
19521;SDS011;9905;52.126;5.596;2024-02-16T05:42:01;9.93;;;9.52;;
19521;SDS011;9905;52.126;5.596;2024-02-16T05:44:28;10.45;;;9.77;;
19521;SDS011;9905;52.126;5.596;2024-02-16T05:46:57;9.43;;;8.98;;
19521;SDS011;9905;52.126;5.596;2024-02-16T05:49:25;9.43;;;8.90;;
19521;SDS011;9905;52.126;5.596;2024-02-16T05:51:52;8.98;;;8.57;;
19521;SDS011;9905;52.126;5.596;2024-02-16T05:54:42;9.35;;;8.85;;
19521;SDS011;9905;52.126;5.596;2024-02-16T05:57:09;9.70;;;9.10;;
19521;SDS011;9905;52.126;5.596;2024-02-16T05:59:36;8.93;;;8.50;;
19521;SDS011;9905;52.126;5.596;2024-02-16T06:02:03;8.98;;;8.40;;
19521;SDS011;9905;52.126;5.596;2024-02-16T06:04:32;9.90;;;9.50;;
19521;SDS011;9905;52.126;5.596;2024-02-16T06:06:59;8.88;;;8.50;;
19521;SDS011;9905;52.126;5.596;2024-02-16T06:09:25;9.30;;;8.80;;
19521;SDS011;9905;52.126;5.596;2024-02-16T06:11:58;8.90;;;8.30;;
19521;SDS011;9905;52.126;5.596;2024-02-16T06:14:28;9.52;;;8.80;;
19521;SDS011;9905;52.126;5.596;2024-02-16T06:16:55;9.77;;;9.18;;
19521;SDS011;9905;52.126;5.596;2024-02-16T06:19:22;9.77;;;9.18;;
19521;SDS011;9905;52.126;5.596;2024-02-16T06:21:50;8.75;;;8.27;;
19521;SDS011;9905;52.126;5.596;2024-02-16T06:24:16;9.52;;;9.13;;
19521;SDS011;9905;52.126;5.596;2024-02-16T06:26:44;8.82;;;8.30;;
19521;SDS011;9905;52.126;5.596;2024-02-16T06:29:10;8.88;;;8.48;;
19521;SDS011;9905;52.126;5.596;2024-02-16T06:31:37;8.85;;;8.45;;
19521;SDS011;9905;52.126;5.596;2024-02-16T06:34:04;8.52;;;8.13;;
19521;SDS011;9905;52.126;5.596;2024-02-16T06:36:30;9.07;;;8.40;;
19521;SDS011;9905;52.126;5.596;2024-02-16T06:38:59;8.45;;;7.97;;
19521;SDS011;9905;52.126;5.596;2024-02-16T06:41:25;9.77;;;9.13;;
19521;SDS011;9905;52.126;5.596;2024-02-16T06:43:52;9.70;;;8.93;;
19521;SDS011;9905;52.126;5.596;2024-02-16T06:46:19;9.10;;;8.40;;
19521;SDS011;9905;52.126;5.596;2024-02-16T06:48:45;9.40;;;8.80;;
19521;SDS011;9905;52.126;5.596;2024-02-16T06:51:12;9.25;;;8.85;;
19521;SDS011;9905;52.126;5.596;2024-02-16T06:53:39;7.95;;;7.55;;
19521;SDS011;9905;52.126;5.596;2024-02-16T06:56:07;8.68;;;8.18;;
19521;SDS011;9905;52.126;5.596;2024-02-16T06:58:35;9.27;;;8.63;;
19521;SDS011;9905;52.126;5.596;2024-02-16T07:01:02;8.10;;;7.65;;
19521;SDS011;9905;52.126;5.596;2024-02-16T07:03:29;8.85;;;8.20;;
19521;SDS011;9905;52.126;5.596;2024-02-16T07:05:56;8.73;;;8.00;;
19521;SDS011;9905;52.126;5.596;2024-02-16T07:08:23;9.02;;;8.43;;
19521;SDS011;9905;52.126;5.596;2024-02-16T07:10:51;8.57;;;7.97;;
19521;SDS011;9905;52.126;5.596;2024-02-16T07:13:19;8.55;;;8.15;;
19521;SDS011;9905;52.126;5.596;2024-02-16T07:15:46;8.65;;;8.18;;
19521;SDS011;9905;52.126;5.596;2024-02-16T07:18:13;9.00;;;8.40;;
19521;SDS011;9905;52.126;5.596;2024-02-16T07:20:39;8.82;;;8.43;;
19521;SDS011;9905;52.126;5.596;2024-02-16T07:23:06;9.02;;;8.63;;
19521;SDS011;9905;52.126;5.596;2024-02-16T07:25:34;9.20;;;8.80;;
19521;SDS011;9905;52.126;5.596;2024-02-16T07:28:01;8.10;;;7.78;;
19521;SDS011;9905;52.126;5.596;2024-02-16T07:30:29;8.70;;;8.20;;
19521;SDS011;9905;52.126;5.596;2024-02-16T07:32:56;8.90;;;8.50;;
19521;SDS011;9905;52.126;5.596;2024-02-16T07:35:23;8.65;;;8.25;;
19521;SDS011;9905;52.126;5.596;2024-02-16T07:37:50;9.25;;;8.65;;
19521;SDS011;9905;52.126;5.596;2024-02-16T07:40:19;9.32;;;8.77;;
19521;SDS011;9905;52.126;5.596;2024-02-16T07:42:46;9.88;;;9.18;;
19521;SDS011;9905;52.126;5.596;2024-02-16T07:45:12;9.27;;;8.77;;
19521;SDS011;9905;52.126;5.596;2024-02-16T07:47:41;9.20;;;8.50;;
19521;SDS011;9905;52.126;5.596;2024-02-16T07:50:08;9.15;;;8.65;;
19521;SDS011;9905;52.126;5.596;2024-02-16T07:52:35;9.68;;;9.15;;
19521;SDS011;9905;52.126;5.596;2024-02-16T07:55:04;9.38;;;8.77;;
19521;SDS011;9905;52.126;5.596;2024-02-16T07:57:31;8.90;;;8.50;;
19521;SDS011;9905;52.126;5.596;2024-02-16T07:59:58;9.40;;;8.70;;
19521;SDS011;9905;52.126;5.596;2024-02-16T08:02:24;9.38;;;8.57;;
19521;SDS011;9905;52.126;5.596;2024-02-16T08:04:52;9.48;;;8.98;;
19521;SDS011;9905;52.126;5.596;2024-02-16T08:07:19;8.85;;;8.48;;
19521;SDS011;9905;52.126;5.596;2024-02-16T08:09:46;8.88;;;8.38;;
19521;SDS011;9905;52.126;5.596;2024-02-16T08:12:14;8.98;;;8.48;;
19521;SDS011;9905;52.126;5.596;2024-02-16T08:14:41;9.52;;;9.13;;
19521;SDS011;9905;52.126;5.596;2024-02-16T08:17:08;9.45;;;8.85;;
19521;SDS011;9905;52.126;5.596;2024-02-16T08:19:36;9.45;;;8.82;;
19521;SDS011;9905;52.126;5.596;2024-02-16T08:22:06;9.82;;;9.43;;
19521;SDS011;9905;52.126;5.596;2024-02-16T08:24:35;10.23;;;9.73;;
19521;SDS011;9905;52.126;5.596;2024-02-16T08:27:02;9.50;;;8.82;;
19521;SDS011;9905;52.126;5.596;2024-02-16T08:29:30;9.80;;;9.30;;
19521;SDS011;9905;52.126;5.596;2024-02-16T08:31:56;9.80;;;9.38;;
19521;SDS011;9905;52.126;5.596;2024-02-16T08:34:23;10.32;;;9.43;;
19521;SDS011;9905;52.126;5.596;2024-02-16T08:36:51;9.52;;;9.02;;
19521;SDS011;9905;52.126;5.596;2024-02-16T08:39:19;9.85;;;9.13;;
19521;SDS011;9905;52.126;5.596;2024-02-16T08:41:50;9.75;;;9.35;;
19521;SDS011;9905;52.126;5.596;2024-02-16T08:44:16;9.98;;;9.48;;
19521;SDS011;9905;52.126;5.596;2024-02-16T08:46:44;9.57;;;9.10;;
19521;SDS011;9905;52.126;5.596;2024-02-16T08:49:11;10.25;;;9.55;;
19521;SDS011;9905;52.126;5.596;2024-02-16T08:51:38;10.32;;;9.88;;
19521;SDS011;9905;52.126;5.596;2024-02-16T08:54:05;10.43;;;9.70;;
19521;SDS011;9905;52.126;5.596;2024-02-16T08:56:33;11.07;;;10.40;;
19521;SDS011;9905;52.126;5.596;2024-02-16T08:59:00;11.23;;;10.35;;
19521;SDS011;9905;52.126;5.596;2024-02-16T09:01:30;11.35;;;10.48;;
19521;SDS011;9905;52.126;5.596;2024-02-16T09:03:57;9.55;;;9.00;;
19521;SDS011;9905;52.126;5.596;2024-02-16T09:06:24;10.50;;;10.00;;
19521;SDS011;9905;52.126;5.596;2024-02-16T09:08:51;11.38;;;10.68;;
19521;SDS011;9905;52.126;5.596;2024-02-16T09:11:17;10.75;;;10.05;;
19521;SDS011;9905;52.126;5.596;2024-02-16T09:13:46;9.88;;;9.38;;
19521;SDS011;9905;52.126;5.596;2024-02-16T09:16:13;10.18;;;9.68;;
19521;SDS011;9905;52.126;5.596;2024-02-16T09:18:40;9.75;;;9.32;;
19521;SDS011;9905;52.126;5.596;2024-02-16T09:21:06;10.27;;;9.60;;
19521;SDS011;9905;52.126;5.596;2024-02-16T09:23:34;10.48;;;9.88;;
19521;SDS011;9905;52.126;5.596;2024-02-16T09:26:02;9.60;;;8.90;;
19521;SDS011;9905;52.126;5.596;2024-02-16T09:28:29;9.93;;;9.30;;
19521;SDS011;9905;52.126;5.596;2024-02-16T09:30:57;9.98;;;9.38;;
19521;SDS011;9905;52.126;5.596;2024-02-16T09:33:24;10.18;;;9.57;;
19521;SDS011;9905;52.126;5.596;2024-02-16T09:35:52;10.25;;;9.65;;
19521;SDS011;9905;52.126;5.596;2024-02-16T09:38:18;10.65;;;10.15;;
19521;SDS011;9905;52.126;5.596;2024-02-16T09:40:45;11.07;;;10.07;;
19521;SDS011;9905;52.126;5.596;2024-02-16T09:43:21;11.13;;;10.57;;
19521;SDS011;9905;52.126;5.596;2024-02-16T09:45:54;12.18;;;11.23;;
19521;SDS011;9905;52.126;5.596;2024-02-16T09:48:23;12.27;;;11.68;;
19521;SDS011;9905;52.126;5.596;2024-02-16T09:50:51;12.20;;;11.73;;
19521;SDS011;9905;52.126;5.596;2024-02-16T09:53:20;13.25;;;12.43;;
19521;SDS011;9905;52.126;5.596;2024-02-16T09:55:50;12.85;;;12.35;;
19521;SDS011;9905;52.126;5.596;2024-02-16T09:58:17;14.00;;;12.93;;
19521;SDS011;9905;52.126;5.596;2024-02-16T10:00:48;12.80;;;11.95;;
19521;SDS011;9905;52.126;5.596;2024-02-16T10:03:23;13.93;;;13.05;;
19521;SDS011;9905;52.126;5.596;2024-02-16T10:05:51;13.02;;;12.25;;
19521;SDS011;9905;52.126;5.596;2024-02-16T10:08:18;12.60;;;11.90;;
19521;SDS011;9905;52.126;5.596;2024-02-16T10:10:44;13.70;;;12.65;;
19521;SDS011;9905;52.126;5.596;2024-02-16T10:13:11;12.68;;;11.77;;
19521;SDS011;9905;52.126;5.596;2024-02-16T10:15:38;13.05;;;12.27;;
19521;SDS011;9905;52.126;5.596;2024-02-16T10:18:05;13.55;;;12.57;;
19521;SDS011;9905;52.126;5.596;2024-02-16T10:20:34;13.57;;;12.88;;
19521;SDS011;9905;52.126;5.596;2024-02-16T10:23:02;14.80;;;14.07;;
19521;SDS011;9905;52.126;5.596;2024-02-16T10:25:29;14.98;;;14.10;;
19521;SDS011;9905;52.126;5.596;2024-02-16T10:27:56;14.32;;;13.15;;
19521;SDS011;9905;52.126;5.596;2024-02-16T10:30:25;14.65;;;13.98;;
19521;SDS011;9905;52.126;5.596;2024-02-16T10:32:55;15.02;;;14.20;;
19521;SDS011;9905;52.126;5.596;2024-02-16T10:35:21;16.42;;;15.45;;
19521;SDS011;9905;52.126;5.596;2024-02-16T10:37:52;15.65;;;14.85;;
19521;SDS011;9905;52.126;5.596;2024-02-16T10:40:21;17.42;;;16.15;;
19521;SDS011;9905;52.126;5.596;2024-02-16T10:42:49;16.77;;;15.57;;
19521;SDS011;9905;52.126;5.596;2024-02-16T10:45:17;18.20;;;17.02;;
19521;SDS011;9905;52.126;5.596;2024-02-16T10:47:44;18.45;;;17.35;;
19521;SDS011;9905;52.126;5.596;2024-02-16T10:50:11;19.38;;;18.13;;
19521;SDS011;9905;52.126;5.596;2024-02-16T10:52:39;20.33;;;19.02;;
19521;SDS011;9905;52.126;5.596;2024-02-16T10:55:10;20.17;;;19.10;;
19521;SDS011;9905;52.126;5.596;2024-02-16T10:57:38;22.58;;;20.83;;
19521;SDS011;9905;52.126;5.596;2024-02-16T11:00:07;21.25;;;19.98;;
19521;SDS011;9905;52.126;5.596;2024-02-16T11:02:50;22.63;;;21.42;;
19521;SDS011;9905;52.126;5.596;2024-02-16T11:05:20;23.98;;;22.50;;
19521;SDS011;9905;52.126;5.596;2024-02-16T11:07:59;23.48;;;22.27;;
19521;SDS011;9905;52.126;5.596;2024-02-16T11:10:28;23.83;;;22.55;;
19521;SDS011;9905;52.126;5.596;2024-02-16T11:12:59;25.40;;;24.10;;
19521;SDS011;9905;52.126;5.596;2024-02-16T11:15:28;24.15;;;22.75;;
19521;SDS011;9905;52.126;5.596;2024-02-16T11:17:56;27.63;;;25.90;;
19521;SDS011;9905;52.126;5.596;2024-02-16T11:20:24;27.33;;;25.85;;
19521;SDS011;9905;52.126;5.596;2024-02-16T11:22:52;27.60;;;26.00;;
19521;SDS011;9905;52.126;5.596;2024-02-16T11:25:19;28.73;;;27.17;;
19521;SDS011;9905;52.126;5.596;2024-02-16T11:27:47;28.55;;;26.90;;
19521;SDS011;9905;52.126;5.596;2024-02-16T11:30:15;30.55;;;28.48;;
19521;SDS011;9905;52.126;5.596;2024-02-16T11:32:42;31.10;;;29.25;;
19521;SDS011;9905;52.126;5.596;2024-02-16T11:35:09;31.95;;;30.13;;
19521;SDS011;9905;52.126;5.596;2024-02-16T11:37:36;31.48;;;29.33;;
19521;SDS011;9905;52.126;5.596;2024-02-16T11:40:03;30.98;;;28.98;;
19521;SDS011;9905;52.126;5.596;2024-02-16T11:42:33;32.08;;;30.23;;
19521;SDS011;9905;52.126;5.596;2024-02-16T11:45:02;32.45;;;30.50;;
19521;SDS011;9905;52.126;5.596;2024-02-16T11:47:29;33.85;;;31.92;;
19521;SDS011;9905;52.126;5.596;2024-02-16T11:50:02;33.50;;;31.60;;
19521;SDS011;9905;52.126;5.596;2024-02-16T11:52:29;33.72;;;31.83;;
19521;SDS011;9905;52.126;5.596;2024-02-16T11:54:56;32.75;;;30.92;;
19521;SDS011;9905;52.126;5.596;2024-02-16T11:57:25;32.65;;;30.80;;
19521;SDS011;9905;52.126;5.596;2024-02-16T11:59:52;31.85;;;29.90;;
19521;SDS011;9905;52.126;5.596;2024-02-16T12:02:21;31.30;;;29.60;;
19521;SDS011;9905;52.126;5.596;2024-02-16T12:04:57;33.53;;;31.33;;
19521;SDS011;9905;52.126;5.596;2024-02-16T12:07:25;31.52;;;29.67;;
19521;SDS011;9905;52.126;5.596;2024-02-16T12:09:54;32.22;;;30.33;;
19521;SDS011;9905;52.126;5.596;2024-02-16T12:12:23;32.63;;;30.52;;
19521;SDS011;9905;52.126;5.596;2024-02-16T12:14:49;31.58;;;29.80;;
19521;SDS011;9905;52.126;5.596;2024-02-16T12:17:16;32.75;;;30.80;;
19521;SDS011;9905;52.126;5.596;2024-02-16T12:19:44;33.95;;;31.83;;
19521;SDS011;9905;52.126;5.596;2024-02-16T12:22:16;34.38;;;32.28;;
19521;SDS011;9905;52.126;5.596;2024-02-16T12:24:43;34.95;;;32.95;;
19521;SDS011;9905;52.126;5.596;2024-02-16T12:27:10;33.65;;;31.25;;
19521;SDS011;9905;52.126;5.596;2024-02-16T12:29:38;34.58;;;32.58;;
19521;SDS011;9905;52.126;5.596;2024-02-16T12:32:05;35.03;;;32.85;;
19521;SDS011;9905;52.126;5.596;2024-02-16T12:34:32;34.10;;;32.05;;
19521;SDS011;9905;52.126;5.596;2024-02-16T12:37:00;34.03;;;32.00;;
19521;SDS011;9905;52.126;5.596;2024-02-16T12:39:27;35.35;;;32.85;;
19521;SDS011;9905;52.126;5.596;2024-02-16T12:41:54;33.67;;;31.48;;
19521;SDS011;9905;52.126;5.596;2024-02-16T12:44:21;34.05;;;31.85;;
19521;SDS011;9905;52.126;5.596;2024-02-16T12:46:48;32.75;;;30.65;;
19521;SDS011;9905;52.126;5.596;2024-02-16T12:49:14;34.63;;;32.40;;
19521;SDS011;9905;52.126;5.596;2024-02-16T12:51:41;33.97;;;31.80;;
19521;SDS011;9905;52.126;5.596;2024-02-16T12:54:10;35.10;;;32.88;;
19521;SDS011;9905;52.126;5.596;2024-02-16T12:56:39;34.50;;;32.28;;
19521;SDS011;9905;52.126;5.596;2024-02-16T12:59:06;33.00;;;31.20;;
19521;SDS011;9905;52.126;5.596;2024-02-16T13:01:32;30.02;;;28.70;;
19521;SDS011;9905;52.126;5.596;2024-02-16T13:03:59;29.80;;;28.50;;
19521;SDS011;9905;52.126;5.596;2024-02-16T13:06:26;31.20;;;29.75;;
19521;SDS011;9905;52.126;5.596;2024-02-16T13:08:53;30.08;;;28.77;;
19521;SDS011;9905;52.126;5.596;2024-02-16T13:11:21;31.60;;;30.10;;
19521;SDS011;9905;52.126;5.596;2024-02-16T13:13:47;30.70;;;29.25;;
19521;SDS011;9905;52.126;5.596;2024-02-16T13:16:14;28.70;;;27.50;;
19521;SDS011;9905;52.126;5.596;2024-02-16T13:18:41;29.90;;;28.63;;
19521;SDS011;9905;52.126;5.596;2024-02-16T13:21:08;29.10;;;27.77;;
19521;SDS011;9905;52.126;5.596;2024-02-16T13:23:34;30.25;;;28.85;;
19521;SDS011;9905;52.126;5.596;2024-02-16T13:26:01;29.38;;;28.08;;
19521;SDS011;9905;52.126;5.596;2024-02-16T13:28:30;29.13;;;27.92;;
19521;SDS011;9905;52.126;5.596;2024-02-16T13:30:58;29.17;;;27.98;;
19521;SDS011;9905;52.126;5.596;2024-02-16T13:33:25;27.80;;;26.42;;
19521;SDS011;9905;52.126;5.596;2024-02-16T13:35:51;27.23;;;26.13;;
19521;SDS011;9905;52.126;5.596;2024-02-16T13:38:19;27.48;;;26.38;;
19521;SDS011;9905;52.126;5.596;2024-02-16T13:40:46;27.73;;;26.52;;
19521;SDS011;9905;52.126;5.596;2024-02-16T13:43:14;25.85;;;24.85;;
19521;SDS011;9905;52.126;5.596;2024-02-16T13:45:51;25.80;;;24.80;;
19521;SDS011;9905;52.126;5.596;2024-02-16T13:48:19;23.50;;;22.60;;
19521;SDS011;9905;52.126;5.596;2024-02-16T13:50:47;22.70;;;21.80;;
19521;SDS011;9905;52.126;5.596;2024-02-16T13:53:14;22.98;;;22.02;;
19521;SDS011;9905;52.126;5.596;2024-02-16T13:55:41;22.77;;;22.00;;
19521;SDS011;9905;52.126;5.596;2024-02-16T13:58:08;23.77;;;22.92;;
19521;SDS011;9905;52.126;5.596;2024-02-16T14:00:35;22.02;;;21.23;;
19521;SDS011;9905;52.126;5.596;2024-02-16T14:03:04;21.00;;;20.23;;
19521;SDS011;9905;52.126;5.596;2024-02-16T14:05:33;20.33;;;19.52;;
19521;SDS011;9905;52.126;5.596;2024-02-16T14:08:00;20.75;;;20.05;;
19521;SDS011;9905;52.126;5.596;2024-02-16T14:10:28;19.63;;;18.90;;
19521;SDS011;9905;52.126;5.596;2024-02-16T14:12:55;19.42;;;18.70;;
19521;SDS011;9905;52.126;5.596;2024-02-16T14:15:22;17.25;;;16.65;;
19521;SDS011;9905;52.126;5.596;2024-02-16T14:17:48;19.15;;;18.38;;
19521;SDS011;9905;52.126;5.596;2024-02-16T14:20:17;19.15;;;18.55;;
19521;SDS011;9905;52.126;5.596;2024-02-16T14:22:45;19.58;;;18.63;;
19521;SDS011;9905;52.126;5.596;2024-02-16T14:25:12;18.85;;;18.05;;
19521;SDS011;9905;52.126;5.596;2024-02-16T14:27:39;19.10;;;18.50;;
19521;SDS011;9905;52.126;5.596;2024-02-16T14:30:07;19.42;;;18.55;;
19521;SDS011;9905;52.126;5.596;2024-02-16T14:32:34;17.80;;;17.17;;
19521;SDS011;9905;52.126;5.596;2024-02-16T14:35:01;16.98;;;16.40;;
19521;SDS011;9905;52.126;5.596;2024-02-16T14:37:29;17.77;;;17.17;;
19521;SDS011;9905;52.126;5.596;2024-02-16T14:39:56;17.90;;;17.30;;
19521;SDS011;9905;52.126;5.596;2024-02-16T14:42:24;18.80;;;18.10;;
19521;SDS011;9905;52.126;5.596;2024-02-16T14:44:51;19.38;;;18.67;;
19521;SDS011;9905;52.126;5.596;2024-02-16T14:47:18;19.02;;;18.33;;
19521;SDS011;9905;52.126;5.596;2024-02-16T14:49:46;19.23;;;18.40;;
19521;SDS011;9905;52.126;5.596;2024-02-16T14:52:13;20.35;;;19.48;;